sensor_id;sensor_type;location;lat;lon;timestamp;temperature;humidity
7384;DHT22;3733;47.994;8.820;2024-03-29T00:00:25;2.20;93.30
7384;DHT22;3733;47.994;8.820;2024-03-29T00:02:50;2.20;93.40
7384;DHT22;3733;47.994;8.820;2024-03-29T00:05:16;2.20;94.00
7384;DHT22;3733;47.994;8.820;2024-03-29T00:07:41;2.10;93.90
7384;DHT22;3733;47.994;8.820;2024-03-29T00:10:07;2.20;94.20
7384;DHT22;3733;47.994;8.820;2024-03-29T00:12:33;2.10;93.70
7384;DHT22;3733;47.994;8.820;2024-03-29T00:14:59;2.10;93.50
7384;DHT22;3733;47.994;8.820;2024-03-29T00:17:24;2.00;93.80
7384;DHT22;3733;47.994;8.820;2024-03-29T00:19:50;2.00;94.00
7384;DHT22;3733;47.994;8.820;2024-03-29T00:22:15;2.00;94.90
7384;DHT22;3733;47.994;8.820;2024-03-29T00:24:41;2.00;95.20
7384;DHT22;3733;47.994;8.820;2024-03-29T00:27:06;2.00;95.70
7384;DHT22;3733;47.994;8.820;2024-03-29T00:29:32;2.00;95.80
7384;DHT22;3733;47.994;8.820;2024-03-29T00:31:58;2.00;95.60
7384;DHT22;3733;47.994;8.820;2024-03-29T00:34:23;1.90;96.40
7384;DHT22;3733;47.994;8.820;2024-03-29T00:36:49;1.90;96.10
7384;DHT22;3733;47.994;8.820;2024-03-29T00:39:14;1.90;96.30
7384;DHT22;3733;47.994;8.820;2024-03-29T00:41:40;1.90;96.40
7384;DHT22;3733;47.994;8.820;2024-03-29T00:44:05;1.90;96.70
7384;DHT22;3733;47.994;8.820;2024-03-29T00:46:31;1.90;96.60
7384;DHT22;3733;47.994;8.820;2024-03-29T00:48:57;1.80;96.70
7384;DHT22;3733;47.994;8.820;2024-03-29T00:51:22;1.80;96.60
7384;DHT22;3733;47.994;8.820;2024-03-29T00:53:48;1.80;96.90
7384;DHT22;3733;47.994;8.820;2024-03-29T00:56:15;1.80;97.50
7384;DHT22;3733;47.994;8.820;2024-03-29T00:58:40;1.80;97.30
7384;DHT22;3733;47.994;8.820;2024-03-29T01:01:06;1.80;97.00
7384;DHT22;3733;47.994;8.820;2024-03-29T01:03:32;1.80;97.70
7384;DHT22;3733;47.994;8.820;2024-03-29T01:05:57;1.80;98.40
7384;DHT22;3733;47.994;8.820;2024-03-29T01:08:23;1.80;98.70
7384;DHT22;3733;47.994;8.820;2024-03-29T01:10:49;1.80;99.40
7384;DHT22;3733;47.994;8.820;2024-03-29T01:13:15;1.80;99.90
7384;DHT22;3733;47.994;8.820;2024-03-29T01:15:40;1.80;99.90
7384;DHT22;3733;47.994;8.820;2024-03-29T01:18:06;1.80;99.90
7384;DHT22;3733;47.994;8.820;2024-03-29T01:20:32;1.80;99.90
7384;DHT22;3733;47.994;8.820;2024-03-29T01:22:57;1.90;99.90
7384;DHT22;3733;47.994;8.820;2024-03-29T01:25:23;1.90;99.50
7384;DHT22;3733;47.994;8.820;2024-03-29T01:27:49;1.90;99.10
7384;DHT22;3733;47.994;8.820;2024-03-29T01:30:15;1.80;98.40
7384;DHT22;3733;47.994;8.820;2024-03-29T01:32:41;1.80;98.60
7384;DHT22;3733;47.994;8.820;2024-03-29T01:35:06;1.80;98.80
7384;DHT22;3733;47.994;8.820;2024-03-29T01:37:32;1.80;99.00
7384;DHT22;3733;47.994;8.820;2024-03-29T01:39:58;1.70;98.50
7384;DHT22;3733;47.994;8.820;2024-03-29T01:42:23;1.70;98.50
7384;DHT22;3733;47.994;8.820;2024-03-29T01:44:49;1.70;98.70
7384;DHT22;3733;47.994;8.820;2024-03-29T01:47:17;1.70;99.20
7384;DHT22;3733;47.994;8.820;2024-03-29T01:49:44;1.60;99.60
7384;DHT22;3733;47.994;8.820;2024-03-29T01:52:11;1.60;99.90
7384;DHT22;3733;47.994;8.820;2024-03-29T01:54:37;1.60;99.90
7384;DHT22;3733;47.994;8.820;2024-03-29T01:57:03;1.60;99.70
7384;DHT22;3733;47.994;8.820;2024-03-29T01:59:29;1.60;99.90
7384;DHT22;3733;47.994;8.820;2024-03-29T02:01:55;1.60;99.90
7384;DHT22;3733;47.994;8.820;2024-03-29T02:04:22;1.60;99.90
7384;DHT22;3733;47.994;8.820;2024-03-29T02:06:47;1.50;99.90
7384;DHT22;3733;47.994;8.820;2024-03-29T02:09:13;1.50;99.90
7384;DHT22;3733;47.994;8.820;2024-03-29T02:11:39;1.50;99.90
7384;DHT22;3733;47.994;8.820;2024-03-29T02:14:04;1.50;99.90
7384;DHT22;3733;47.994;8.820;2024-03-29T02:16:32;1.50;99.90
7384;DHT22;3733;47.994;8.820;2024-03-29T02:18:57;1.50;99.90
7384;DHT22;3733;47.994;8.820;2024-03-29T02:21:23;1.50;99.90
7384;DHT22;3733;47.994;8.820;2024-03-29T02:23:58;1.50;99.90
7384;DHT22;3733;47.994;8.820;2024-03-29T02:26:24;1.40;99.90
7384;DHT22;3733;47.994;8.820;2024-03-29T02:28:52;1.40;99.90
7384;DHT22;3733;47.994;8.820;2024-03-29T02:31:17;1.40;99.90
7384;DHT22;3733;47.994;8.820;2024-03-29T02:33:43;1.40;99.90
7384;DHT22;3733;47.994;8.820;2024-03-29T02:36:09;1.40;99.90
7384;DHT22;3733;47.994;8.820;2024-03-29T02:38:34;1.40;99.90
7384;DHT22;3733;47.994;8.820;2024-03-29T02:41:00;1.40;99.90
7384;DHT22;3733;47.994;8.820;2024-03-29T02:43:25;1.40;99.90
7384;DHT22;3733;47.994;8.820;2024-03-29T02:45:51;1.40;99.90
7384;DHT22;3733;47.994;8.820;2024-03-29T02:48:17;1.40;99.90
7384;DHT22;3733;47.994;8.820;2024-03-29T02:50:42;1.40;99.90
7384;DHT22;3733;47.994;8.820;2024-03-29T02:53:08;1.40;99.90
7384;DHT22;3733;47.994;8.820;2024-03-29T02:55:33;1.30;99.90
7384;DHT22;3733;47.994;8.820;2024-03-29T02:57:59;1.30;99.90
7384;DHT22;3733;47.994;8.820;2024-03-29T03:00:24;1.30;99.90
7384;DHT22;3733;47.994;8.820;2024-03-29T03:02:50;1.30;99.90
7384;DHT22;3733;47.994;8.820;2024-03-29T03:05:15;1.30;99.90
7384;DHT22;3733;47.994;8.820;2024-03-29T03:07:41;1.30;99.90
7384;DHT22;3733;47.994;8.820;2024-03-29T03:10:25;1.30;99.90
7384;DHT22;3733;47.994;8.820;2024-03-29T03:13:09;1.30;99.90
7384;DHT22;3733;47.994;8.820;2024-03-29T03:15:35;1.40;99.90
7384;DHT22;3733;47.994;8.820;2024-03-29T03:18:01;1.40;99.90
7384;DHT22;3733;47.994;8.820;2024-03-29T03:20:26;1.40;99.90
7384;DHT22;3733;47.994;8.820;2024-03-29T03:22:56;1.40;99.90
7384;DHT22;3733;47.994;8.820;2024-03-29T03:25:23;1.40;99.90
7384;DHT22;3733;47.994;8.820;2024-03-29T03:27:48;1.40;99.90
7384;DHT22;3733;47.994;8.820;2024-03-29T03:30:14;1.40;99.90
7384;DHT22;3733;47.994;8.820;2024-03-29T03:32:40;1.40;99.90
7384;DHT22;3733;47.994;8.820;2024-03-29T03:35:06;1.40;99.90
7384;DHT22;3733;47.994;8.820;2024-03-29T03:37:32;1.40;99.90
7384;DHT22;3733;47.994;8.820;2024-03-29T03:39:57;1.40;99.90
7384;DHT22;3733;47.994;8.820;2024-03-29T03:42:23;1.40;99.90
7384;DHT22;3733;47.994;8.820;2024-03-29T03:44:48;1.40;99.90
7384;DHT22;3733;47.994;8.820;2024-03-29T03:47:14;1.40;99.90
7384;DHT22;3733;47.994;8.820;2024-03-29T03:49:39;1.40;99.90
7384;DHT22;3733;47.994;8.820;2024-03-29T03:52:05;1.50;99.90
7384;DHT22;3733;47.994;8.820;2024-03-29T03:54:31;1.50;99.90
7384;DHT22;3733;47.994;8.820;2024-03-29T03:56:56;1.50;99.90
7384;DHT22;3733;47.994;8.820;2024-03-29T03:59:22;1.50;99.90
7384;DHT22;3733;47.994;8.820;2024-03-29T04:01:47;1.50;99.90
7384;DHT22;3733;47.994;8.820;2024-03-29T04:04:17;1.50;99.90
7384;DHT22;3733;47.994;8.820;2024-03-29T04:06:42;1.50;99.90
7384;DHT22;3733;47.994;8.820;2024-03-29T04:09:08;1.50;99.90
7384;DHT22;3733;47.994;8.820;2024-03-29T04:11:34;1.50;99.90
7384;DHT22;3733;47.994;8.820;2024-03-29T04:13:59;1.50;99.90
7384;DHT22;3733;47.994;8.820;2024-03-29T04:16:25;1.50;99.90
7384;DHT22;3733;47.994;8.820;2024-03-29T04:18:50;1.60;99.90
7384;DHT22;3733;47.994;8.820;2024-03-29T04:21:16;1.60;99.90
7384;DHT22;3733;47.994;8.820;2024-03-29T04:23:42;1.60;99.90
7384;DHT22;3733;47.994;8.820;2024-03-29T04:26:07;1.60;99.90
7384;DHT22;3733;47.994;8.820;2024-03-29T04:28:33;1.60;99.90
7384;DHT22;3733;47.994;8.820;2024-03-29T04:31:00;1.60;99.90
7384;DHT22;3733;47.994;8.820;2024-03-29T04:33:26;1.60;99.90
7384;DHT22;3733;47.994;8.820;2024-03-29T04:36:01;1.60;99.90
7384;DHT22;3733;47.994;8.820;2024-03-29T04:38:27;1.60;99.90
7384;DHT22;3733;47.994;8.820;2024-03-29T04:40:54;1.60;99.90
7384;DHT22;3733;47.994;8.820;2024-03-29T04:43:22;1.60;99.90
7384;DHT22;3733;47.994;8.820;2024-03-29T04:45:48;1.60;99.90
7384;DHT22;3733;47.994;8.820;2024-03-29T04:48:14;1.60;99.90
7384;DHT22;3733;47.994;8.820;2024-03-29T04:50:39;1.60;99.90
7384;DHT22;3733;47.994;8.820;2024-03-29T04:53:09;1.60;99.90
7384;DHT22;3733;47.994;8.820;2024-03-29T04:55:35;1.60;99.90
7384;DHT22;3733;47.994;8.820;2024-03-29T04:58:01;1.60;99.90
7384;DHT22;3733;47.994;8.820;2024-03-29T05:00:27;1.50;99.90
7384;DHT22;3733;47.994;8.820;2024-03-29T05:02:53;1.60;99.90
7384;DHT22;3733;47.994;8.820;2024-03-29T05:05:19;1.60;99.90
7384;DHT22;3733;47.994;8.820;2024-03-29T05:07:44;1.60;99.90
7384;DHT22;3733;47.994;8.820;2024-03-29T05:10:10;1.60;99.90
7384;DHT22;3733;47.994;8.820;2024-03-29T05:12:36;1.70;99.90
7384;DHT22;3733;47.994;8.820;2024-03-29T05:15:02;1.70;99.90
7384;DHT22;3733;47.994;8.820;2024-03-29T05:17:28;1.60;99.90
7384;DHT22;3733;47.994;8.820;2024-03-29T05:19:54;1.70;99.90
7384;DHT22;3733;47.994;8.820;2024-03-29T05:22:20;1.70;99.90
7384;DHT22;3733;47.994;8.820;2024-03-29T05:24:46;1.70;99.90
7384;DHT22;3733;47.994;8.820;2024-03-29T05:27:12;1.80;99.90
7384;DHT22;3733;47.994;8.820;2024-03-29T05:29:37;1.80;99.90
7384;DHT22;3733;47.994;8.820;2024-03-29T05:32:06;1.90;99.90
7384;DHT22;3733;47.994;8.820;2024-03-29T05:34:32;1.90;99.90
7384;DHT22;3733;47.994;8.820;2024-03-29T05:36:58;2.00;99.90
7384;DHT22;3733;47.994;8.820;2024-03-29T05:39:23;2.00;99.90
7384;DHT22;3733;47.994;8.820;2024-03-29T05:41:49;2.10;99.90
7384;DHT22;3733;47.994;8.820;2024-03-29T05:44:14;2.10;99.90
7384;DHT22;3733;47.994;8.820;2024-03-29T05:46:40;2.30;99.90
7384;DHT22;3733;47.994;8.820;2024-03-29T05:49:09;2.30;99.90
7384;DHT22;3733;47.994;8.820;2024-03-29T05:51:34;2.40;99.90
7384;DHT22;3733;47.994;8.820;2024-03-29T05:54:00;2.50;99.90
7384;DHT22;3733;47.994;8.820;2024-03-29T05:56:25;2.50;99.90
7384;DHT22;3733;47.994;8.820;2024-03-29T05:58:51;2.50;99.90
7384;DHT22;3733;47.994;8.820;2024-03-29T06:01:17;2.60;99.90
7384;DHT22;3733;47.994;8.820;2024-03-29T06:03:42;2.60;99.90
7384;DHT22;3733;47.994;8.820;2024-03-29T06:06:08;2.70;99.90
7384;DHT22;3733;47.994;8.820;2024-03-29T06:08:37;2.70;99.90
7384;DHT22;3733;47.994;8.820;2024-03-29T06:11:03;2.80;99.90
7384;DHT22;3733;47.994;8.820;2024-03-29T06:13:28;2.90;99.90
7384;DHT22;3733;47.994;8.820;2024-03-29T06:16:13;2.90;99.90
7384;DHT22;3733;47.994;8.820;2024-03-29T06:18:57;2.90;99.90
7384;DHT22;3733;47.994;8.820;2024-03-29T06:21:22;3.00;99.90
7384;DHT22;3733;47.994;8.820;2024-03-29T06:23:48;3.00;99.90
7384;DHT22;3733;47.994;8.820;2024-03-29T06:26:13;3.00;99.90
7384;DHT22;3733;47.994;8.820;2024-03-29T06:28:39;3.10;99.90
7384;DHT22;3733;47.994;8.820;2024-03-29T06:31:05;3.10;99.90
7384;DHT22;3733;47.994;8.820;2024-03-29T06:33:30;3.20;99.90
7384;DHT22;3733;47.994;8.820;2024-03-29T06:35:56;3.30;99.90
7384;DHT22;3733;47.994;8.820;2024-03-29T06:38:21;3.50;99.90
7384;DHT22;3733;47.994;8.820;2024-03-29T06:40:47;3.60;99.90
7384;DHT22;3733;47.994;8.820;2024-03-29T06:43:13;3.70;99.90
7384;DHT22;3733;47.994;8.820;2024-03-29T06:45:41;3.80;99.90
7384;DHT22;3733;47.994;8.820;2024-03-29T06:48:10;3.80;99.90
7384;DHT22;3733;47.994;8.820;2024-03-29T06:50:37;3.80;99.90
7384;DHT22;3733;47.994;8.820;2024-03-29T06:53:03;3.80;99.90
7384;DHT22;3733;47.994;8.820;2024-03-29T06:55:30;3.80;99.90
7384;DHT22;3733;47.994;8.820;2024-03-29T06:57:56;3.80;99.90
7384;DHT22;3733;47.994;8.820;2024-03-29T07:00:22;3.80;99.90
7384;DHT22;3733;47.994;8.820;2024-03-29T07:02:47;3.80;99.90
7384;DHT22;3733;47.994;8.820;2024-03-29T07:05:13;3.90;99.90
7384;DHT22;3733;47.994;8.820;2024-03-29T07:07:38;4.00;99.90
7384;DHT22;3733;47.994;8.820;2024-03-29T07:10:06;4.00;99.90
7384;DHT22;3733;47.994;8.820;2024-03-29T07:12:32;4.20;99.90
7384;DHT22;3733;47.994;8.820;2024-03-29T07:14:57;4.30;99.90
7384;DHT22;3733;47.994;8.820;2024-03-29T07:17:23;4.40;99.90
7384;DHT22;3733;47.994;8.820;2024-03-29T07:19:48;4.60;99.90
7384;DHT22;3733;47.994;8.820;2024-03-29T07:22:14;4.80;99.90
7384;DHT22;3733;47.994;8.820;2024-03-29T07:24:39;5.00;99.90
7384;DHT22;3733;47.994;8.820;2024-03-29T07:27:05;5.10;99.90
7384;DHT22;3733;47.994;8.820;2024-03-29T07:29:31;5.30;99.90
7384;DHT22;3733;47.994;8.820;2024-03-29T07:31:59;5.50;99.90
7384;DHT22;3733;47.994;8.820;2024-03-29T07:34:25;5.70;98.00
7384;DHT22;3733;47.994;8.820;2024-03-29T07:36:51;5.80;96.00
7384;DHT22;3733;47.994;8.820;2024-03-29T07:39:16;6.00;97.90
7384;DHT22;3733;47.994;8.820;2024-03-29T07:41:42;6.20;94.30
7384;DHT22;3733;47.994;8.820;2024-03-29T07:44:08;6.40;92.80
7384;DHT22;3733;47.994;8.820;2024-03-29T07:46:37;6.50;91.70
7384;DHT22;3733;47.994;8.820;2024-03-29T07:49:03;6.60;88.50
7384;DHT22;3733;47.994;8.820;2024-03-29T07:51:29;6.80;88.30
7384;DHT22;3733;47.994;8.820;2024-03-29T07:53:55;6.90;87.10
7384;DHT22;3733;47.994;8.820;2024-03-29T07:56:21;7.10;86.50
7384;DHT22;3733;47.994;8.820;2024-03-29T07:58:52;7.30;85.40
7384;DHT22;3733;47.994;8.820;2024-03-29T08:01:21;7.30;81.00
7384;DHT22;3733;47.994;8.820;2024-03-29T08:03:47;7.40;80.40
7384;DHT22;3733;47.994;8.820;2024-03-29T08:06:13;7.50;78.10
7384;DHT22;3733;47.994;8.820;2024-03-29T08:08:39;7.50;76.90
7384;DHT22;3733;47.994;8.820;2024-03-29T08:11:04;7.60;76.30
7384;DHT22;3733;47.994;8.820;2024-03-29T08:13:30;7.70;75.40
7384;DHT22;3733;47.994;8.820;2024-03-29T08:16:00;7.80;75.50
7384;DHT22;3733;47.994;8.820;2024-03-29T08:18:27;8.00;74.90
7384;DHT22;3733;47.994;8.820;2024-03-29T08:20:53;8.00;74.00
7384;DHT22;3733;47.994;8.820;2024-03-29T08:23:22;8.20;73.80
7384;DHT22;3733;47.994;8.820;2024-03-29T08:25:48;8.20;72.80
7384;DHT22;3733;47.994;8.820;2024-03-29T08:28:15;8.30;72.80
7384;DHT22;3733;47.994;8.820;2024-03-29T08:30:40;8.50;73.20
7384;DHT22;3733;47.994;8.820;2024-03-29T08:33:06;8.60;73.00
7384;DHT22;3733;47.994;8.820;2024-03-29T08:35:32;8.70;71.80
7384;DHT22;3733;47.994;8.820;2024-03-29T08:37:59;8.80;71.10
7384;DHT22;3733;47.994;8.820;2024-03-29T08:40:26;8.90;70.40
7384;DHT22;3733;47.994;8.820;2024-03-29T08:42:54;8.90;68.60
7384;DHT22;3733;47.994;8.820;2024-03-29T08:45:20;9.00;68.00
7384;DHT22;3733;47.994;8.820;2024-03-29T08:47:46;9.00;67.60
7384;DHT22;3733;47.994;8.820;2024-03-29T08:50:12;9.10;68.30
7384;DHT22;3733;47.994;8.820;2024-03-29T08:52:39;9.20;68.80
7384;DHT22;3733;47.994;8.820;2024-03-29T08:55:06;9.30;67.80
7384;DHT22;3733;47.994;8.820;2024-03-29T08:57:32;9.30;68.00
7384;DHT22;3733;47.994;8.820;2024-03-29T08:59:58;9.30;67.10
7384;DHT22;3733;47.994;8.820;2024-03-29T09:02:23;9.40;66.40
7384;DHT22;3733;47.994;8.820;2024-03-29T09:04:49;9.40;65.70
7384;DHT22;3733;47.994;8.820;2024-03-29T09:07:14;9.40;65.50
7384;DHT22;3733;47.994;8.820;2024-03-29T09:09:41;9.50;65.60
7384;DHT22;3733;47.994;8.820;2024-03-29T09:12:09;9.50;65.00
7384;DHT22;3733;47.994;8.820;2024-03-29T09:14:35;9.60;64.70
7384;DHT22;3733;47.994;8.820;2024-03-29T09:17:01;9.70;64.70
7384;DHT22;3733;47.994;8.820;2024-03-29T09:19:28;9.80;64.50
7384;DHT22;3733;47.994;8.820;2024-03-29T09:21:55;9.90;63.50
7384;DHT22;3733;47.994;8.820;2024-03-29T09:24:21;10.10;61.60
7384;DHT22;3733;47.994;8.820;2024-03-29T09:26:49;10.30;61.60
7384;DHT22;3733;47.994;8.820;2024-03-29T09:29:14;10.60;62.00
7384;DHT22;3733;47.994;8.820;2024-03-29T09:31:41;10.80;62.00
7384;DHT22;3733;47.994;8.820;2024-03-29T09:34:06;11.00;62.30
7384;DHT22;3733;47.994;8.820;2024-03-29T09:36:32;11.20;62.60
7384;DHT22;3733;47.994;8.820;2024-03-29T09:38:58;11.40;62.00
7384;DHT22;3733;47.994;8.820;2024-03-29T09:41:25;11.50;61.70
7384;DHT22;3733;47.994;8.820;2024-03-29T09:43:53;11.70;61.10
7384;DHT22;3733;47.994;8.820;2024-03-29T09:46:20;11.90;60.10
7384;DHT22;3733;47.994;8.820;2024-03-29T09:48:47;12.00;58.40
7384;DHT22;3733;47.994;8.820;2024-03-29T09:51:14;12.10;57.40
7384;DHT22;3733;47.994;8.820;2024-03-29T09:53:41;12.20;56.30
7384;DHT22;3733;47.994;8.820;2024-03-29T09:56:08;12.30;56.30
7384;DHT22;3733;47.994;8.820;2024-03-29T09:58:35;12.60;55.20
7384;DHT22;3733;47.994;8.820;2024-03-29T10:01:07;12.80;54.20
7384;DHT22;3733;47.994;8.820;2024-03-29T10:03:38;13.00;54.30
7384;DHT22;3733;47.994;8.820;2024-03-29T10:06:05;13.20;54.20
7384;DHT22;3733;47.994;8.820;2024-03-29T10:08:33;13.30;53.80
7384;DHT22;3733;47.994;8.820;2024-03-29T10:11:00;13.50;54.30
7384;DHT22;3733;47.994;8.820;2024-03-29T10:13:26;13.60;54.00
7384;DHT22;3733;47.994;8.820;2024-03-29T10:15:52;13.80;53.50
7384;DHT22;3733;47.994;8.820;2024-03-29T10:18:21;13.90;53.50
7384;DHT22;3733;47.994;8.820;2024-03-29T10:20:47;14.10;54.00
7384;DHT22;3733;47.994;8.820;2024-03-29T10:23:13;14.30;53.70
7384;DHT22;3733;47.994;8.820;2024-03-29T10:25:39;14.60;54.30
7384;DHT22;3733;47.994;8.820;2024-03-29T10:28:05;14.80;53.30
7384;DHT22;3733;47.994;8.820;2024-03-29T10:30:31;14.80;52.50
7384;DHT22;3733;47.994;8.820;2024-03-29T10:32:57;14.80;51.30
7384;DHT22;3733;47.994;8.820;2024-03-29T10:35:24;14.80;51.90
7384;DHT22;3733;47.994;8.820;2024-03-29T10:37:52;14.80;50.70
7384;DHT22;3733;47.994;8.820;2024-03-29T10:40:18;14.90;50.80
7384;DHT22;3733;47.994;8.820;2024-03-29T10:42:45;15.00;50.00
7384;DHT22;3733;47.994;8.820;2024-03-29T10:45:14;15.10;50.30
7384;DHT22;3733;47.994;8.820;2024-03-29T10:47:43;15.10;50.20
7384;DHT22;3733;47.994;8.820;2024-03-29T10:50:12;15.20;50.70
7384;DHT22;3733;47.994;8.820;2024-03-29T10:52:39;15.40;51.70
7384;DHT22;3733;47.994;8.820;2024-03-29T10:55:08;15.70;51.20
7384;DHT22;3733;47.994;8.820;2024-03-29T10:57:34;15.90;50.40
7384;DHT22;3733;47.994;8.820;2024-03-29T11:00:13;16.00;49.60
7384;DHT22;3733;47.994;8.820;2024-03-29T11:02:59;16.20;46.50
7384;DHT22;3733;47.994;8.820;2024-03-29T11:05:30;16.60;44.30
7384;DHT22;3733;47.994;8.820;2024-03-29T11:07:58;16.90;43.00
7384;DHT22;3733;47.994;8.820;2024-03-29T11:10:29;17.00;42.40
7384;DHT22;3733;47.994;8.820;2024-03-29T11:13:01;17.00;41.40
7384;DHT22;3733;47.994;8.820;2024-03-29T11:15:30;17.00;41.10
7384;DHT22;3733;47.994;8.820;2024-03-29T11:17:56;17.00;41.30
7384;DHT22;3733;47.994;8.820;2024-03-29T11:20:27;17.00;42.20
7384;DHT22;3733;47.994;8.820;2024-03-29T11:23:22;17.00;41.70
7384;DHT22;3733;47.994;8.820;2024-03-29T11:25:50;17.00;41.50
7384;DHT22;3733;47.994;8.820;2024-03-29T11:30:52;17.20;42.40
7384;DHT22;3733;47.994;8.820;2024-03-29T11:33:35;17.40;42.60
7384;DHT22;3733;47.994;8.820;2024-03-29T11:36:20;17.50;41.90
7384;DHT22;3733;47.994;8.820;2024-03-29T11:38:53;17.80;40.90
7384;DHT22;3733;47.994;8.820;2024-03-29T11:41:23;17.90;41.20
7384;DHT22;3733;47.994;8.820;2024-03-29T11:43:53;17.90;40.60
7384;DHT22;3733;47.994;8.820;2024-03-29T11:46:20;18.00;39.90
7384;DHT22;3733;47.994;8.820;2024-03-29T11:48:46;18.10;40.10
7384;DHT22;3733;47.994;8.820;2024-03-29T11:51:14;18.20;39.70
7384;DHT22;3733;47.994;8.820;2024-03-29T11:53:41;18.20;38.70
7384;DHT22;3733;47.994;8.820;2024-03-29T11:56:07;18.10;39.60
7384;DHT22;3733;47.994;8.820;2024-03-29T11:58:33;18.00;39.80
7384;DHT22;3733;47.994;8.820;2024-03-29T12:01:00;17.90;40.40
7384;DHT22;3733;47.994;8.820;2024-03-29T12:03:28;17.80;40.30
7384;DHT22;3733;47.994;8.820;2024-03-29T12:05:55;17.70;40.80
7384;DHT22;3733;47.994;8.820;2024-03-29T12:08:29;17.80;41.00
7384;DHT22;3733;47.994;8.820;2024-03-29T12:11:01;18.00;41.00
7384;DHT22;3733;47.994;8.820;2024-03-29T12:13:27;18.10;40.30
7384;DHT22;3733;47.994;8.820;2024-03-29T12:15:53;18.10;40.60
7384;DHT22;3733;47.994;8.820;2024-03-29T12:18:23;18.30;40.80
7384;DHT22;3733;47.994;8.820;2024-03-29T12:20:50;18.60;41.10
7384;DHT22;3733;47.994;8.820;2024-03-29T12:23:17;18.80;39.30
7384;DHT22;3733;47.994;8.820;2024-03-29T12:25:43;19.10;39.20
7384;DHT22;3733;47.994;8.820;2024-03-29T12:28:13;19.20;39.00
7384;DHT22;3733;47.994;8.820;2024-03-29T12:30:44;19.30;38.60
7384;DHT22;3733;47.994;8.820;2024-03-29T12:33:17;19.30;37.90
7384;DHT22;3733;47.994;8.820;2024-03-29T12:35:49;19.10;37.30
7384;DHT22;3733;47.994;8.820;2024-03-29T12:38:16;19.20;37.20
7384;DHT22;3733;47.994;8.820;2024-03-29T12:40:44;19.20;37.10
7384;DHT22;3733;47.994;8.820;2024-03-29T12:43:10;19.40;37.00
7384;DHT22;3733;47.994;8.820;2024-03-29T12:45:38;19.60;37.90
7384;DHT22;3733;47.994;8.820;2024-03-29T12:50:35;19.90;37.10
7384;DHT22;3733;47.994;8.820;2024-03-29T12:53:06;20.20;36.10
7384;DHT22;3733;47.994;8.820;2024-03-29T12:55:32;20.40;37.10
7384;DHT22;3733;47.994;8.820;2024-03-29T12:58:01;20.60;36.20
7384;DHT22;3733;47.994;8.820;2024-03-29T13:00:30;20.60;36.00
7384;DHT22;3733;47.994;8.820;2024-03-29T13:02:55;20.70;35.50
7384;DHT22;3733;47.994;8.820;2024-03-29T13:05:22;20.80;36.00
7384;DHT22;3733;47.994;8.820;2024-03-29T13:07:47;20.90;36.10
7384;DHT22;3733;47.994;8.820;2024-03-29T13:10:13;20.90;34.50
7384;DHT22;3733;47.994;8.820;2024-03-29T13:12:41;21.00;35.20
7384;DHT22;3733;47.994;8.820;2024-03-29T13:15:22;21.10;34.60
7384;DHT22;3733;47.994;8.820;2024-03-29T13:17:51;21.10;34.70
7384;DHT22;3733;47.994;8.820;2024-03-29T13:20:16;21.10;34.20
7384;DHT22;3733;47.994;8.820;2024-03-29T13:22:43;21.30;34.50
7384;DHT22;3733;47.994;8.820;2024-03-29T13:25:20;21.40;34.30
7384;DHT22;3733;47.994;8.820;2024-03-29T13:27:50;21.60;34.60
7384;DHT22;3733;47.994;8.820;2024-03-29T13:30:25;21.90;34.50
7384;DHT22;3733;47.994;8.820;2024-03-29T13:32:52;22.20;34.60
7384;DHT22;3733;47.994;8.820;2024-03-29T13:35:18;22.40;34.20
7384;DHT22;3733;47.994;8.820;2024-03-29T13:37:48;22.70;35.00
7384;DHT22;3733;47.994;8.820;2024-03-29T13:40:16;22.90;32.60
7384;DHT22;3733;47.994;8.820;2024-03-29T13:42:42;23.00;32.60
7384;DHT22;3733;47.994;8.820;2024-03-29T13:45:09;23.10;32.70
7384;DHT22;3733;47.994;8.820;2024-03-29T13:47:39;23.30;33.40
7384;DHT22;3733;47.994;8.820;2024-03-29T13:50:06;23.60;33.90
7384;DHT22;3733;47.994;8.820;2024-03-29T13:52:33;23.40;32.30
7384;DHT22;3733;47.994;8.820;2024-03-29T13:54:59;22.90;32.10
7384;DHT22;3733;47.994;8.820;2024-03-29T13:57:25;22.50;32.60
7384;DHT22;3733;47.994;8.820;2024-03-29T13:59:50;22.50;33.90
7384;DHT22;3733;47.994;8.820;2024-03-29T14:02:17;22.60;33.10
7384;DHT22;3733;47.994;8.820;2024-03-29T14:04:46;22.40;33.50
7384;DHT22;3733;47.994;8.820;2024-03-29T14:07:13;22.10;33.50
7384;DHT22;3733;47.994;8.820;2024-03-29T14:09:40;21.80;33.30
7384;DHT22;3733;47.994;8.820;2024-03-29T14:12:07;21.60;33.60
7384;DHT22;3733;47.994;8.820;2024-03-29T14:14:32;21.50;33.50
7384;DHT22;3733;47.994;8.820;2024-03-29T14:16:58;21.40;34.10
7384;DHT22;3733;47.994;8.820;2024-03-29T14:19:38;21.30;33.90
7384;DHT22;3733;47.994;8.820;2024-03-29T14:22:05;21.20;34.40
7384;DHT22;3733;47.994;8.820;2024-03-29T14:24:31;21.10;34.00
7384;DHT22;3733;47.994;8.820;2024-03-29T14:27:01;20.90;33.80
7384;DHT22;3733;47.994;8.820;2024-03-29T14:29:27;20.60;33.90
7384;DHT22;3733;47.994;8.820;2024-03-29T14:31:52;20.40;34.40
7384;DHT22;3733;47.994;8.820;2024-03-29T14:34:20;20.20;34.50
7384;DHT22;3733;47.994;8.820;2024-03-29T14:36:46;20.10;34.80
7384;DHT22;3733;47.994;8.820;2024-03-29T14:39:11;19.90;35.10
7384;DHT22;3733;47.994;8.820;2024-03-29T14:41:41;19.80;35.70
7384;DHT22;3733;47.994;8.820;2024-03-29T14:44:07;19.70;36.20
7384;DHT22;3733;47.994;8.820;2024-03-29T14:46:33;19.60;36.30
7384;DHT22;3733;47.994;8.820;2024-03-29T14:49:00;19.50;36.50
7384;DHT22;3733;47.994;8.820;2024-03-29T14:51:26;19.40;37.00
7384;DHT22;3733;47.994;8.820;2024-03-29T14:53:53;19.30;37.30
7384;DHT22;3733;47.994;8.820;2024-03-29T14:56:19;19.20;37.70
7384;DHT22;3733;47.994;8.820;2024-03-29T14:58:44;19.00;37.60
7384;DHT22;3733;47.994;8.820;2024-03-29T15:01:11;19.00;37.80
7384;DHT22;3733;47.994;8.820;2024-03-29T15:03:37;18.90;38.20
7384;DHT22;3733;47.994;8.820;2024-03-29T15:06:03;18.80;37.90
7384;DHT22;3733;47.994;8.820;2024-03-29T15:08:29;18.70;38.50
7384;DHT22;3733;47.994;8.820;2024-03-29T15:13:23;18.60;39.70
7384;DHT22;3733;47.994;8.820;2024-03-29T15:16:00;18.60;39.00
7384;DHT22;3733;47.994;8.820;2024-03-29T15:18:26;18.40;38.30
7384;DHT22;3733;47.994;8.820;2024-03-29T15:20:57;18.40;38.40
7384;DHT22;3733;47.994;8.820;2024-03-29T15:23:23;18.20;38.50
7384;DHT22;3733;47.994;8.820;2024-03-29T15:25:53;18.20;38.50
7384;DHT22;3733;47.994;8.820;2024-03-29T15:28:20;18.10;38.90
7384;DHT22;3733;47.994;8.820;2024-03-29T15:31:13;18.00;39.10
7384;DHT22;3733;47.994;8.820;2024-03-29T15:33:39;18.00;39.40
7384;DHT22;3733;47.994;8.820;2024-03-29T15:36:05;17.90;39.90
7384;DHT22;3733;47.994;8.820;2024-03-29T15:38:32;17.80;40.50
7384;DHT22;3733;47.994;8.820;2024-03-29T15:40:58;17.80;40.50
7384;DHT22;3733;47.994;8.820;2024-03-29T15:43:25;17.70;40.50
7384;DHT22;3733;47.994;8.820;2024-03-29T15:45:51;17.70;40.60
7384;DHT22;3733;47.994;8.820;2024-03-29T15:48:17;17.60;40.80
7384;DHT22;3733;47.994;8.820;2024-03-29T15:50:42;17.60;41.20
7384;DHT22;3733;47.994;8.820;2024-03-29T15:53:09;17.50;41.20
7384;DHT22;3733;47.994;8.820;2024-03-29T15:55:35;17.50;41.50
7384;DHT22;3733;47.994;8.820;2024-03-29T15:58:00;17.50;41.30
7384;DHT22;3733;47.994;8.820;2024-03-29T16:00:26;17.40;41.70
7384;DHT22;3733;47.994;8.820;2024-03-29T16:02:56;17.40;42.20
7384;DHT22;3733;47.994;8.820;2024-03-29T16:05:21;17.40;42.00
7384;DHT22;3733;47.994;8.820;2024-03-29T16:07:47;17.30;42.40
7384;DHT22;3733;47.994;8.820;2024-03-29T16:10:13;17.30;42.80
7384;DHT22;3733;47.994;8.820;2024-03-29T16:12:38;17.20;43.50
7384;DHT22;3733;47.994;8.820;2024-03-29T16:15:04;17.20;43.10
7384;DHT22;3733;47.994;8.820;2024-03-29T16:17:30;17.20;43.00